sensor_id;sensor_type;location;lat;lon;timestamp;P1;durP1;ratioP1;P2;durP2;ratioP2
52072;SDS011;38074;51.232;6.826;2023-07-02T00:03:33;1.87;;;0.60;;
52072;SDS011;38074;51.232;6.826;2023-07-02T00:10:49;7.13;;;1.03;;
52072;SDS011;38074;51.232;6.826;2023-07-02T00:18:05;2.97;;;0.40;;
52072;SDS011;38074;51.232;6.826;2023-07-02T00:25:20;1.90;;;0.57;;
52072;SDS011;38074;51.232;6.826;2023-07-02T00:32:36;3.57;;;0.50;;
52072;SDS011;38074;51.232;6.826;2023-07-02T00:39:51;1.33;;;0.50;;
52072;SDS011;38074;51.232;6.826;2023-07-02T00:47:10;2.93;;;0.73;;
52072;SDS011;38074;51.232;6.826;2023-07-02T00:54:30;2.53;;;0.57;;
52072;SDS011;38074;51.232;6.826;2023-07-02T01:01:46;0.98;;;0.40;;
52072;SDS011;38074;51.232;6.826;2023-07-02T01:09:05;2.15;;;0.70;;
52072;SDS011;38074;51.232;6.826;2023-07-02T01:16:21;1.27;;;0.40;;
52072;SDS011;38074;51.232;6.826;2023-07-02T01:23:37;1.37;;;0.50;;
52072;SDS011;38074;51.232;6.826;2023-07-02T01:30:53;1.27;;;0.33;;
52072;SDS011;38074;51.232;6.826;2023-07-02T01:38:08;2.27;;;0.60;;
52072;SDS011;38074;51.232;6.826;2023-07-02T01:45:24;1.67;;;0.70;;
52072;SDS011;38074;51.232;6.826;2023-07-02T01:52:40;2.22;;;0.70;;
52072;SDS011;38074;51.232;6.826;2023-07-02T01:59:56;3.37;;;0.87;;
52072;SDS011;38074;51.232;6.826;2023-07-02T02:07:12;1.40;;;0.70;;
52072;SDS011;38074;51.232;6.826;2023-07-02T02:14:27;1.90;;;0.70;;
52072;SDS011;38074;51.232;6.826;2023-07-02T02:21:43;1.97;;;0.67;;
52072;SDS011;38074;51.232;6.826;2023-07-02T02:28:59;2.93;;;0.83;;
52072;SDS011;38074;51.232;6.826;2023-07-02T02:36:14;2.43;;;1.00;;
52072;SDS011;38074;51.232;6.826;2023-07-02T02:43:31;1.77;;;0.90;;
52072;SDS011;38074;51.232;6.826;2023-07-02T02:50:47;2.05;;;1.13;;
52072;SDS011;38074;51.232;6.826;2023-07-02T02:58:03;3.27;;;0.80;;
52072;SDS011;38074;51.232;6.826;2023-07-02T03:05:18;2.73;;;1.30;;
52072;SDS011;38074;51.232;6.826;2023-07-02T03:12:34;1.73;;;1.07;;
52072;SDS011;38074;51.232;6.826;2023-07-02T03:19:50;2.60;;;1.10;;
52072;SDS011;38074;51.232;6.826;2023-07-02T03:27:05;3.27;;;1.20;;
52072;SDS011;38074;51.232;6.826;2023-07-02T03:34:21;2.17;;;1.10;;
52072;SDS011;38074;51.232;6.826;2023-07-02T03:41:38;4.07;;;1.67;;
52072;SDS011;38074;51.232;6.826;2023-07-02T03:48:54;2.70;;;1.60;;
52072;SDS011;38074;51.232;6.826;2023-07-02T03:56:09;2.47;;;1.30;;
52072;SDS011;38074;51.232;6.826;2023-07-02T04:03:25;2.73;;;1.80;;
52072;SDS011;38074;51.232;6.826;2023-07-02T04:10:41;5.73;;;2.20;;
52072;SDS011;38074;51.232;6.826;2023-07-02T04:17:56;3.43;;;2.03;;
52072;SDS011;38074;51.232;6.826;2023-07-02T04:25:12;4.13;;;2.13;;
52072;SDS011;38074;51.232;6.826;2023-07-02T04:32:31;3.35;;;1.83;;
52072;SDS011;38074;51.232;6.826;2023-07-02T04:39:47;3.90;;;2.20;;
52072;SDS011;38074;51.232;6.826;2023-07-02T04:47:02;3.03;;;2.20;;
52072;SDS011;38074;51.232;6.826;2023-07-02T04:54:18;4.70;;;2.07;;
52072;SDS011;38074;51.232;6.826;2023-07-02T05:01:36;3.55;;;2.10;;
52072;SDS011;38074;51.232;6.826;2023-07-02T05:08:52;3.77;;;2.47;;
52072;SDS011;38074;51.232;6.826;2023-07-02T05:16:08;4.30;;;2.73;;
52072;SDS011;38074;51.232;6.826;2023-07-02T05:23:23;4.47;;;2.87;;
52072;SDS011;38074;51.232;6.826;2023-07-02T05:30:39;3.90;;;2.40;;
52072;SDS011;38074;51.232;6.826;2023-07-02T05:37:54;3.90;;;2.30;;
52072;SDS011;38074;51.232;6.826;2023-07-02T05:45:10;4.70;;;2.90;;
52072;SDS011;38074;51.232;6.826;2023-07-02T05:52:25;7.30;;;2.60;;
52072;SDS011;38074;51.232;6.826;2023-07-02T05:59:41;4.10;;;2.67;;
52072;SDS011;38074;51.232;6.826;2023-07-02T06:06:57;7.43;;;2.93;;
52072;SDS011;38074;51.232;6.826;2023-07-02T06:14:12;5.10;;;3.17;;
52072;SDS011;38074;51.232;6.826;2023-07-02T06:21:28;6.33;;;3.30;;
52072;SDS011;38074;51.232;6.826;2023-07-02T06:28:45;5.25;;;2.95;;
52072;SDS011;38074;51.232;6.826;2023-07-02T06:36:00;7.47;;;3.57;;
52072;SDS011;38074;51.232;6.826;2023-07-02T06:43:16;5.07;;;3.53;;
52072;SDS011;38074;51.232;6.826;2023-07-02T06:50:31;8.23;;;4.00;;
52072;SDS011;38074;51.232;6.826;2023-07-02T06:57:47;6.53;;;4.03;;
52072;SDS011;38074;51.232;6.826;2023-07-02T07:05:02;7.63;;;4.00;;
52072;SDS011;38074;51.232;6.826;2023-07-02T07:12:19;9.45;;;5.28;;
52072;SDS011;38074;51.232;6.826;2023-07-02T07:19:34;8.83;;;4.93;;
52072;SDS011;38074;51.232;6.826;2023-07-02T07:26:50;12.27;;;6.90;;
52072;SDS011;38074;51.232;6.826;2023-07-02T07:34:05;12.17;;;7.97;;
52072;SDS011;38074;51.232;6.826;2023-07-02T07:41:21;13.27;;;8.43;;
52072;SDS011;38074;51.232;6.826;2023-07-02T07:48:36;16.87;;;9.40;;
52072;SDS011;38074;51.232;6.826;2023-07-02T07:55:52;16.63;;;9.17;;
52072;SDS011;38074;51.232;6.826;2023-07-02T08:03:07;14.43;;;8.40;;
52072;SDS011;38074;51.232;6.826;2023-07-02T08:10:24;16.08;;;9.18;;
52072;SDS011;38074;51.232;6.826;2023-07-02T08:17:40;27.97;;;9.77;;
52072;SDS011;38074;51.232;6.826;2023-07-02T08:24:55;23.10;;;9.77;;
52072;SDS011;38074;51.232;6.826;2023-07-02T08:32:11;22.70;;;10.17;;
52072;SDS011;38074;51.232;6.826;2023-07-02T08:39:26;23.67;;;10.43;;
52072;SDS011;38074;51.232;6.826;2023-07-02T08:46:42;22.83;;;11.20;;
52072;SDS011;38074;51.232;6.826;2023-07-02T08:53:58;20.70;;;10.80;;
52072;SDS011;38074;51.232;6.826;2023-07-02T09:01:13;19.23;;;11.07;;
52072;SDS011;38074;51.232;6.826;2023-07-02T09:08:29;23.53;;;11.57;;
52072;SDS011;38074;51.232;6.826;2023-07-02T09:15:45;18.47;;;9.63;;
52072;SDS011;38074;51.232;6.826;2023-07-02T09:23:00;17.70;;;10.00;;
52072;SDS011;38074;51.232;6.826;2023-07-02T09:30:16;22.43;;;10.47;;
52072;SDS011;38074;51.232;6.826;2023-07-02T09:37:32;20.80;;;10.80;;
52072;SDS011;38074;51.232;6.826;2023-07-02T09:44:48;21.53;;;11.43;;
52072;SDS011;38074;51.232;6.826;2023-07-02T09:52:07;23.30;;;12.23;;
52072;SDS011;38074;51.232;6.826;2023-07-02T09:59:24;23.42;;;12.27;;
52072;SDS011;38074;51.232;6.826;2023-07-02T10:06:44;25.57;;;12.43;;
52072;SDS011;38074;51.232;6.826;2023-07-02T10:14:01;25.42;;;11.18;;
52072;SDS011;38074;51.232;6.826;2023-07-02T10:21:17;23.47;;;11.83;;
52072;SDS011;38074;51.232;6.826;2023-07-02T10:28:32;23.97;;;11.37;;
52072;SDS011;38074;51.232;6.826;2023-07-02T10:35:48;17.97;;;10.83;;
52072;SDS011;38074;51.232;6.826;2023-07-02T10:43:04;20.70;;;10.03;;
52072;SDS011;38074;51.232;6.826;2023-07-02T10:50:20;18.17;;;9.77;;
52072;SDS011;38074;51.232;6.826;2023-07-02T10:57:38;13.73;;;7.78;;
52072;SDS011;38074;51.232;6.826;2023-07-02T11:04:53;17.50;;;8.40;;
52072;SDS011;38074;51.232;6.826;2023-07-02T11:12:09;14.07;;;6.87;;
52072;SDS011;38074;51.232;6.826;2023-07-02T11:19:25;13.50;;;7.07;;
52072;SDS011;38074;51.232;6.826;2023-07-02T11:26:40;13.97;;;7.20;;
52072;SDS011;38074;51.232;6.826;2023-07-02T11:33:56;11.50;;;6.73;;
52072;SDS011;38074;51.232;6.826;2023-07-02T11:41:12;11.63;;;5.57;;
52072;SDS011;38074;51.232;6.826;2023-07-02T11:48:27;15.03;;;6.47;;
52072;SDS011;38074;51.232;6.826;2023-07-02T11:55:43;13.20;;;6.63;;
52072;SDS011;38074;51.232;6.826;2023-07-02T12:02:58;13.83;;;5.73;;
52072;SDS011;38074;51.232;6.826;2023-07-02T12:10:14;12.77;;;6.30;;
52072;SDS011;38074;51.232;6.826;2023-07-02T12:17:29;12.97;;;5.93;;
52072;SDS011;38074;51.232;6.826;2023-07-02T12:24:45;13.37;;;6.60;;
52072;SDS011;38074;51.232;6.826;2023-07-02T12:32:01;13.00;;;6.30;;
52072;SDS011;38074;51.232;6.826;2023-07-02T12:39:16;16.20;;;6.73;;
52072;SDS011;38074;51.232;6.826;2023-07-02T12:46:32;15.63;;;6.27;;
52072;SDS011;38074;51.232;6.826;2023-07-02T12:53:47;14.80;;;6.63;;
52072;SDS011;38074;51.232;6.826;2023-07-02T13:01:03;12.23;;;6.30;;
52072;SDS011;38074;51.232;6.826;2023-07-02T13:08:18;11.80;;;6.07;;
52072;SDS011;38074;51.232;6.826;2023-07-02T13:15:34;12.57;;;5.93;;
52072;SDS011;38074;51.232;6.826;2023-07-02T13:22:50;12.37;;;5.90;;
52072;SDS011;38074;51.232;6.826;2023-07-02T13:30:05;14.63;;;6.13;;
52072;SDS011;38074;51.232;6.826;2023-07-02T13:37:22;15.43;;;6.43;;
52072;SDS011;38074;51.232;6.826;2023-07-02T13:44:37;12.83;;;6.30;;
52072;SDS011;38074;51.232;6.826;2023-07-02T13:51:53;13.33;;;6.30;;
52072;SDS011;38074;51.232;6.826;2023-07-02T13:59:08;13.30;;;6.67;;
52072;SDS011;38074;51.232;6.826;2023-07-02T14:06:24;16.60;;;6.40;;
52072;SDS011;38074;51.232;6.826;2023-07-02T14:13:40;11.80;;;6.23;;
52072;SDS011;38074;51.232;6.826;2023-07-02T14:20:55;20.30;;;7.27;;
52072;SDS011;38074;51.232;6.826;2023-07-02T14:28:11;17.10;;;7.30;;
52072;SDS011;38074;51.232;6.826;2023-07-02T14:35:26;16.03;;;6.83;;
52072;SDS011;38074;51.232;6.826;2023-07-02T14:42:44;14.20;;;6.30;;
52072;SDS011;38074;51.232;6.826;2023-07-02T14:50:00;16.00;;;6.43;;
52072;SDS011;38074;51.232;6.826;2023-07-02T14:57:16;11.97;;;6.50;;
52072;SDS011;38074;51.232;6.826;2023-07-02T15:04:34;16.98;;;6.65;;
52072;SDS011;38074;51.232;6.826;2023-07-02T15:11:49;13.37;;;5.70;;
52072;SDS011;38074;51.232;6.826;2023-07-02T15:19:05;16.50;;;6.83;;
52072;SDS011;38074;51.232;6.826;2023-07-02T15:26:20;15.83;;;7.47;;
52072;SDS011;38074;51.232;6.826;2023-07-02T15:33:36;16.90;;;7.60;;
52072;SDS011;38074;51.232;6.826;2023-07-02T15:41:04;16.40;;;6.83;;
52072;SDS011;38074;51.232;6.826;2023-07-02T15:48:27;15.73;;;6.78;;
52072;SDS011;38074;51.232;6.826;2023-07-02T15:55:42;18.67;;;7.50;;
52072;SDS011;38074;51.232;6.826;2023-07-02T16:02:58;16.23;;;6.37;;
52072;SDS011;38074;51.232;6.826;2023-07-02T16:10:15;14.93;;;5.93;;
52072;SDS011;38074;51.232;6.826;2023-07-02T16:17:30;8.40;;;4.13;;
52072;SDS011;38074;51.232;6.826;2023-07-02T16:24:46;13.43;;;6.03;;
52072;SDS011;38074;51.232;6.826;2023-07-02T16:32:03;14.13;;;6.67;;
52072;SDS011;38074;51.232;6.826;2023-07-02T16:39:19;11.30;;;6.00;;
52072;SDS011;38074;51.232;6.826;2023-07-02T16:46:35;12.40;;;6.40;;
52072;SDS011;38074;51.232;6.826;2023-07-02T16:53:51;12.17;;;6.17;;
52072;SDS011;38074;51.232;6.826;2023-07-02T17:01:10;10.50;;;5.27;;
52072;SDS011;38074;51.232;6.826;2023-07-02T17:08:27;17.13;;;6.93;;
52072;SDS011;38074;51.232;6.826;2023-07-02T17:15:42;16.87;;;6.80;;
52072;SDS011;38074;51.232;6.826;2023-07-02T17:22:58;18.43;;;6.50;;
52072;SDS011;38074;51.232;6.826;2023-07-02T17:30:14;18.48;;;6.78;;
52072;SDS011;38074;51.232;6.826;2023-07-02T17:37:31;17.00;;;6.50;;
52072;SDS011;38074;51.232;6.826;2023-07-02T17:44:46;11.37;;;5.87;;
52072;SDS011;38074;51.232;6.826;2023-07-02T17:52:03;16.33;;;6.93;;
52072;SDS011;38074;51.232;6.826;2023-07-02T17:59:20;9.55;;;4.82;;
52072;SDS011;38074;51.232;6.826;2023-07-02T18:06:36;11.32;;;4.85;;
52072;SDS011;38074;51.232;6.826;2023-07-02T18:13:55;9.77;;;5.20;;
52072;SDS011;38074;51.232;6.826;2023-07-02T18:21:12;10.07;;;5.05;;
52072;SDS011;38074;51.232;6.826;2023-07-02T18:28:28;8.03;;;4.17;;
52072;SDS011;38074;51.232;6.826;2023-07-02T18:35:44;9.95;;;4.30;;
52072;SDS011;38074;51.232;6.826;2023-07-02T18:43:01;6.63;;;4.50;;
52072;SDS011;38074;51.232;6.826;2023-07-02T18:50:19;7.70;;;4.50;;
52072;SDS011;38074;51.232;6.826;2023-07-02T18:57:35;7.87;;;4.00;;
52072;SDS011;38074;51.232;6.826;2023-07-02T19:04:52;6.95;;;3.80;;
52072;SDS011;38074;51.232;6.826;2023-07-02T19:12:08;6.28;;;4.13;;
52072;SDS011;38074;51.232;6.826;2023-07-02T19:19:24;6.40;;;4.10;;
52072;SDS011;38074;51.232;6.826;2023-07-02T19:26:40;7.37;;;3.90;;
52072;SDS011;38074;51.232;6.826;2023-07-02T19:33:55;6.83;;;3.77;;
52072;SDS011;38074;51.232;6.826;2023-07-02T19:41:11;6.60;;;3.73;;
52072;SDS011;38074;51.232;6.826;2023-07-02T19:48:26;6.43;;;3.60;;
52072;SDS011;38074;51.232;6.826;2023-07-02T19:55:43;6.07;;;4.00;;
52072;SDS011;38074;51.232;6.826;2023-07-02T20:02:58;5.60;;;3.80;;
52072;SDS011;38074;51.232;6.826;2023-07-02T20:10:14;6.33;;;3.47;;
52072;SDS011;38074;51.232;6.826;2023-07-02T20:17:29;4.90;;;3.30;;
52072;SDS011;38074;51.232;6.826;2023-07-02T20:24:45;6.87;;;3.33;;
52072;SDS011;38074;51.232;6.826;2023-07-02T20:32:01;6.73;;;3.50;;
52072;SDS011;38074;51.232;6.826;2023-07-02T20:39:17;10.27;;;4.27;;
52072;SDS011;38074;51.232;6.826;2023-07-02T20:46:32;12.83;;;3.80;;
52072;SDS011;38074;51.232;6.826;2023-07-02T20:53:48;10.50;;;3.57;;
52072;SDS011;38074;51.232;6.826;2023-07-02T21:01:05;8.00;;;3.87;;
52072;SDS011;38074;51.232;6.826;2023-07-02T21:08:21;6.57;;;3.35;;
52072;SDS011;38074;51.232;6.826;2023-07-02T21:15:37;11.47;;;3.53;;
52072;SDS011;38074;51.232;6.826;2023-07-02T21:22:52;10.20;;;4.47;;
52072;SDS011;38074;51.232;6.826;2023-07-02T21:30:08;9.57;;;3.73;;
52072;SDS011;38074;51.232;6.826;2023-07-02T21:37:24;10.25;;;2.92;;
52072;SDS011;38074;51.232;6.826;2023-07-02T21:44:40;8.83;;;3.53;;
52072;SDS011;38074;51.232;6.826;2023-07-02T21:51:56;7.33;;;2.93;;
52072;SDS011;38074;51.232;6.826;2023-07-02T21:59:11;8.40;;;3.20;;
52072;SDS011;38074;51.232;6.826;2023-07-02T22:06:27;7.47;;;3.30;;
52072;SDS011;38074;51.232;6.826;2023-07-02T22:13:42;7.73;;;2.97;;
52072;SDS011;38074;51.232;6.826;2023-07-02T22:20:58;6.23;;;3.03;;
52072;SDS011;38074;51.232;6.826;2023-07-02T22:28:15;5.80;;;2.95;;
52072;SDS011;38074;51.232;6.826;2023-07-02T22:35:30;5.90;;;2.53;;
52072;SDS011;38074;51.232;6.826;2023-07-02T22:42:46;5.97;;;2.40;;
52072;SDS011;38074;51.232;6.826;2023-07-02T22:50:04;6.55;;;2.58;;
52072;SDS011;38074;51.232;6.826;2023-07-02T22:57:20;5.28;;;2.33;;
52072;SDS011;38074;51.232;6.826;2023-07-02T23:11:52;8.20;;;2.67;;
52072;SDS011;38074;51.232;6.826;2023-07-02T23:19:07;5.33;;;1.97;;
52072;SDS011;38074;51.232;6.826;2023-07-02T23:26:24;5.43;;;2.10;;
52072;SDS011;38074;51.232;6.826;2023-07-02T23:33:46;5.78;;;2.00;;
52072;SDS011;38074;51.232;6.826;2023-07-02T23:41:02;3.93;;;1.80;;
52072;SDS011;38074;51.232;6.826;2023-07-02T23:48:17;2.83;;;1.50;;
52072;SDS011;38074;51.232;6.826;2023-07-02T23:55:33;3.90;;;1.60;;
